Main page
METAR-TAF:

METAR-TAF

Airports :

Islay Airport

Islay, Scotland

latitude: 55-40-55N, longitude: 006-15-24W, elevation: 16 m

Current weather observation

The report was made 25 minutes ago, at 06:50 UTC
Wind 5 kt from the East/Northeast
Temperature -1°C
Humidity 86%
Pressure 1015 hPa
Visibility 10 km or more
Few clouds at a height of 2000 ft

METAR: EGPI 080650Z 06005KT 9999 FEW020 M01/M03 Q1015

Time: 07:15 (07:15 UTC)

Forecast

The report was made 2 hours and 13 minutes ago, at 05:02 UTC
Forecast valid from 08 at 06 UTC to 08 at 15 UTC
Wind 6 kt from the North
Visibility 10 km or more
Few clouds at a height of 2000 ft

TAF: EGPI 080502Z 0806/0815 35006KT 9999 FEW020

Weather observations and forecasts of more than 4000 airports (METAR and TAF reports).

The available stations are represented by yellow and red dots on the map.

Hover mouse over dot to see the name of the station.

Then click to see weather observations and forecasts.

To change the map : click on the green buttons with a black cross to zoom in, on the green button with a dash to zoom out, or on the green arrows for adjacent maps.


METAR-TAF: